CMP484 CYUL-MPTO
Flight info
| Callsign | CMP484 |
|---|---|
| Flight time | 5h 19m |
| Altitude | 36000 |
| Route | FAWNS DCT BUGSY DCT SYR DCT PSB DCT GSO/N0448F380 Q75 SLOJO Q103 CYNTA DCT SHFTY DCT RSW/N0445F370 DCT MCLAW/N0445F380 Y442 FUNDI/N0446F390 UM335 LEPON DCT ARNAL DCT SEKMA OSUPA2C |
| Aircraft | B38M/M-SDE1FGHILORVWXY/HB1 |
Departure
| Time | 2026-05-05 16:34 |
|---|---|
| Airport | Montreal / Pierre Elliott Trudeau International Airport (CYUL) |
Arrival
| Time | 2026-05-05 21:53 |
|---|---|
| Airport | Tocumen International Airport (MPTO) |
| Time | Latitude | Longitude | Altitude | Speed | Heading |
|---|---|---|---|---|---|
| 2026-05-05 15:46 | 45.45592 | -73.75542 | 115 ft | 0 kts | 155° |
| 2026-05-05 16:23 | 45.45634 | -73.75543 | 117 ft | 4 kts | 230° |
| 2026-05-05 16:23 | 45.45641 | -73.75521 | 114 ft | 1 kts | 259° |
| 2026-05-05 16:23 | 45.45642 | -73.75517 | 118 ft | 0 kts | 259° |
| 2026-05-05 16:26 | 45.45638 | -73.75542 | 118 ft | 3 kts | 257° |
| 2026-05-05 16:27 | 45.45631 | -73.75585 | 118 ft | 6 kts | 257° |
| 2026-05-05 16:27 | 45.45620 | -73.75657 | 117 ft | 10 kts | 260° |
| 2026-05-05 16:27 | 45.45672 | -73.75721 | 117 ft | 14 kts | 347° |
| 2026-05-05 16:27 | 45.45757 | -73.75839 | 114 ft | 21 kts | 308° |
| 2026-05-05 16:28 | 45.45879 | -73.75946 | 117 ft | 22 kts | 350° |
| 2026-05-05 16:28 | 45.46037 | -73.75958 | 117 ft | 23 kts | 357° |
| 2026-05-05 16:28 | 45.46123 | -73.76057 | 116 ft | 18 kts | 267° |
| 2026-05-05 16:28 | 45.46189 | -73.76174 | 116 ft | 18 kts | 354° |
| 2026-05-05 16:29 | 45.46283 | -73.76102 | 117 ft | 18 kts | 92° |
| 2026-05-05 16:29 | 45.46280 | -73.75921 | 118 ft | 19 kts | 85° |
| 2026-05-05 16:29 | 45.46307 | -73.75735 | 115 ft | 20 kts | 41° |
| 2026-05-05 16:29 | 45.46438 | -73.75671 | 119 ft | 20 kts | 31° |
| 2026-05-05 16:30 | 45.46549 | -73.75536 | 116 ft | 22 kts | 42° |
| 2026-05-05 16:30 | 45.46662 | -73.75384 | 115 ft | 23 kts | 43° |
| 2026-05-05 16:30 | 45.46791 | -73.75219 | 118 ft | 27 kts | 42° |
| 2026-05-05 16:30 | 45.46939 | -73.75029 | 117 ft | 30 kts | 43° |
| 2026-05-05 16:31 | 45.47097 | -73.74822 | 115 ft | 31 kts | 43° |
| 2026-05-05 16:31 | 45.47258 | -73.74604 | 117 ft | 32 kts | 42° |
| 2026-05-05 16:31 | 45.47427 | -73.74385 | 117 ft | 33 kts | 42° |
| 2026-05-05 16:31 | 45.47599 | -73.74164 | 117 ft | 34 kts | 42° |
| 2026-05-05 16:32 | 45.47774 | -73.73930 | 119 ft | 35 kts | 44° |
| 2026-05-05 16:32 | 45.47952 | -73.73695 | 118 ft | 34 kts | 43° |
| 2026-05-05 16:32 | 45.47964 | -73.73680 | 115 ft | 34 kts | 43° |
| 2026-05-05 16:32 | 45.48080 | -73.73528 | 118 ft | 35 kts | 42° |
| 2026-05-05 16:33 | 45.48213 | -73.73397 | 117 ft | 17 kts | 350° |
| 2026-05-05 16:33 | 45.48278 | -73.73522 | 117 ft | 17 kts | 282° |
| 2026-05-05 16:33 | 45.48264 | -73.73683 | 117 ft | 17 kts | 224° |
| 2026-05-05 16:33 | 45.48166 | -73.73808 | 117 ft | 34 kts | 222° |
| 2026-05-05 16:34 | 45.47787 | -73.74304 | 115 ft | 113 kts | 222° |
| 2026-05-05 16:34 | 45.47052 | -73.75274 | 207 ft | 169 kts | 224° |
| 2026-05-05 16:34 | 45.46154 | -73.76483 | 964 ft | 182 kts | 223° |
| 2026-05-05 16:34 | 45.45203 | -73.77755 | 1981 ft | 194 kts | 224° |
| 2026-05-05 16:35 | 45.44171 | -73.79142 | 2767 ft | 208 kts | 225° |
| 2026-05-05 16:35 | 45.43189 | -73.80470 | 4232 ft | 186 kts | 226° |
| 2026-05-05 16:35 | 45.42229 | -73.81687 | 5410 ft | 185 kts | 220° |
| 2026-05-05 16:35 | 45.41051 | -73.82677 | 6004 ft | 206 kts | 210° |
| 2026-05-05 16:36 | 45.39712 | -73.83455 | 6744 ft | 218 kts | 208° |
| 2026-05-05 16:36 | 45.38265 | -73.84305 | 7425 ft | 231 kts | 209° |
| 2026-05-05 16:36 | 45.36754 | -73.85223 | 8175 ft | 241 kts | 209° |
| 2026-05-05 16:36 | 45.35199 | -73.86188 | 9071 ft | 246 kts | 210° |
| 2026-05-05 16:37 | 45.33618 | -73.87181 | 9952 ft | 251 kts | 210° |
| 2026-05-05 16:37 | 45.32010 | -73.88200 | 10780 ft | 256 kts | 210° |
| 2026-05-05 16:37 | 45.30325 | -73.89275 | 11284 ft | 274 kts | 210° |
| 2026-05-05 16:37 | 45.28551 | -73.90411 | 11896 ft | 286 kts | 210° |
| 2026-05-05 16:38 | 45.26699 | -73.91597 | 12579 ft | 297 kts | 209° |
| 2026-05-05 16:38 | 45.24786 | -73.92822 | 13223 ft | 306 kts | 209° |
| 2026-05-05 16:38 | 45.22841 | -73.94067 | 13916 ft | 310 kts | 209° |
| 2026-05-05 16:38 | 45.20867 | -73.95330 | 14574 ft | 314 kts | 210° |
| 2026-05-05 16:39 | 45.18859 | -73.96613 | 15216 ft | 318 kts | 210° |
| 2026-05-05 16:39 | 45.16837 | -73.97905 | 15891 ft | 321 kts | 210° |
| 2026-05-05 16:39 | 45.14785 | -73.99214 | 16524 ft | 325 kts | 210° |
| 2026-05-05 16:39 | 45.12716 | -74.00533 | 17154 ft | 328 kts | 210° |
| 2026-05-05 16:40 | 45.10615 | -74.01872 | 17789 ft | 332 kts | 210° |
| 2026-05-05 16:40 | 45.08491 | -74.03223 | 18335 ft | 335 kts | 210° |
| 2026-05-05 16:40 | 45.06363 | -74.04577 | 18902 ft | 337 kts | 209° |
| 2026-05-05 16:40 | 45.04212 | -74.05944 | 19448 ft | 340 kts | 209° |
| 2026-05-05 16:41 | 45.02046 | -74.07320 | 19992 ft | 342 kts | 209° |
| 2026-05-05 16:41 | 44.99899 | -74.08643 | 20534 ft | 346 kts | 204° |
| 2026-05-05 16:41 | 44.97504 | -74.09306 | 21119 ft | 354 kts | 194° |
| 2026-05-05 16:41 | 44.95054 | -74.09803 | 21618 ft | 357 kts | 194° |
| 2026-05-05 16:42 | 44.92584 | -74.10295 | 22162 ft | 359 kts | 194° |
| 2026-05-05 16:42 | 44.90103 | -74.10775 | 22698 ft | 362 kts | 194° |
| 2026-05-05 16:42 | 44.87598 | -74.11253 | 23209 ft | 364 kts | 194° |
| 2026-05-05 16:42 | 44.85077 | -74.11730 | 23626 ft | 366 kts | 194° |
| 2026-05-05 16:43 | 44.82542 | -74.12208 | 24019 ft | 369 kts | 194° |
| 2026-05-05 16:43 | 44.80850 | -74.12527 | 24287 ft | 371 kts | 194° |
| 2026-05-05 16:43 | 44.78281 | -74.13010 | 24705 ft | 373 kts | 194° |
| 2026-05-05 16:43 | 44.75711 | -74.13494 | 25107 ft | 374 kts | 194° |
| 2026-05-05 16:44 | 44.73212 | -74.14343 | 25493 ft | 367 kts | 208° |
| 2026-05-05 16:44 | 44.71077 | -74.16251 | 25852 ft | 363 kts | 223° |
| 2026-05-05 16:44 | 44.69186 | -74.18634 | 26186 ft | 367 kts | 224° |
| 2026-05-05 16:44 | 44.67306 | -74.21078 | 26598 ft | 369 kts | 225° |
| 2026-05-05 16:45 | 44.65438 | -74.23565 | 26923 ft | 372 kts | 225° |
| 2026-05-05 16:45 | 44.63563 | -74.26088 | 27283 ft | 374 kts | 226° |
| 2026-05-05 16:45 | 44.61712 | -74.28599 | 27656 ft | 376 kts | 226° |
| 2026-05-05 16:45 | 44.59828 | -74.31162 | 27997 ft | 378 kts | 226° |
| 2026-05-05 16:46 | 44.57934 | -74.33741 | 28370 ft | 380 kts | 226° |
| 2026-05-05 16:46 | 44.56038 | -74.36323 | 28695 ft | 382 kts | 226° |
| 2026-05-05 16:46 | 44.54125 | -74.38926 | 29037 ft | 384 kts | 226° |
| 2026-05-05 16:46 | 44.52202 | -74.41538 | 29372 ft | 386 kts | 226° |
| 2026-05-05 16:47 | 44.50266 | -74.44166 | 29669 ft | 388 kts | 226° |
| 2026-05-05 16:47 | 44.48317 | -74.46811 | 29923 ft | 391 kts | 226° |
| 2026-05-05 16:47 | 44.46358 | -74.49466 | 30185 ft | 393 kts | 226° |
| 2026-05-05 16:47 | 44.44390 | -74.52132 | 30470 ft | 394 kts | 226° |
| 2026-05-05 16:48 | 44.42409 | -74.54811 | 30730 ft | 396 kts | 226° |
| 2026-05-05 16:48 | 44.40443 | -74.57468 | 31015 ft | 398 kts | 226° |
| 2026-05-05 16:48 | 44.38461 | -74.60144 | 31357 ft | 397 kts | 226° |
| 2026-05-05 16:48 | 44.36474 | -74.62824 | 31737 ft | 396 kts | 226° |
| 2026-05-05 16:49 | 44.34493 | -74.65492 | 32096 ft | 395 kts | 226° |
| 2026-05-05 16:49 | 44.32516 | -74.68153 | 32408 ft | 395 kts | 226° |
| 2026-05-05 16:49 | 44.30530 | -74.70823 | 32744 ft | 395 kts | 226° |
| 2026-05-05 16:49 | 44.28550 | -74.73484 | 33083 ft | 394 kts | 226° |
| 2026-05-05 16:50 | 44.26573 | -74.76136 | 33439 ft | 393 kts | 226° |
| 2026-05-05 16:50 | 44.24605 | -74.78774 | 33766 ft | 392 kts | 226° |
| 2026-05-05 16:50 | 44.22632 | -74.81416 | 34039 ft | 392 kts | 226° |
| 2026-05-05 16:50 | 44.20678 | -74.84030 | 34311 ft | 392 kts | 226° |
| 2026-05-05 16:51 | 44.18708 | -74.86664 | 34573 ft | 391 kts | 226° |
| 2026-05-05 16:51 | 44.16769 | -74.89254 | 34772 ft | 392 kts | 226° |
| 2026-05-05 16:51 | 44.14767 | -74.91924 | 34954 ft | 393 kts | 226° |
| 2026-05-05 16:51 | 44.12818 | -74.94522 | 35186 ft | 393 kts | 226° |
| 2026-05-05 16:52 | 44.10820 | -74.97182 | 35435 ft | 393 kts | 226° |
| 2026-05-05 16:52 | 44.08869 | -74.99777 | 35644 ft | 393 kts | 226° |
| 2026-05-05 16:52 | 44.04918 | -75.05026 | 35712 ft | 392 kts | 226° |
| 2026-05-05 16:53 | 44.00998 | -75.10223 | 35684 ft | 390 kts | 226° |
| 2026-05-05 16:53 | 43.97053 | -75.15442 | 35702 ft | 392 kts | 226° |
| 2026-05-05 16:54 | 43.93106 | -75.20656 | 35703 ft | 392 kts | 225° |
| 2026-05-05 16:54 | 43.89154 | -75.25865 | 35695 ft | 392 kts | 225° |
| 2026-05-05 16:55 | 43.85196 | -75.31072 | 35703 ft | 392 kts | 225° |
| 2026-05-05 16:55 | 43.81246 | -75.36258 | 35697 ft | 392 kts | 225° |
| 2026-05-05 16:56 | 43.77284 | -75.41451 | 35702 ft | 392 kts | 225° |
| 2026-05-05 16:56 | 43.73346 | -75.46602 | 35711 ft | 391 kts | 226° |
| 2026-05-05 16:57 | 43.69395 | -75.51759 | 35700 ft | 391 kts | 226° |
| 2026-05-05 16:57 | 43.65437 | -75.56917 | 35704 ft | 393 kts | 226° |
| 2026-05-05 16:58 | 43.61447 | -75.62108 | 35705 ft | 393 kts | 226° |
| 2026-05-05 16:58 | 43.57467 | -75.67273 | 35706 ft | 393 kts | 226° |
| 2026-05-05 16:59 | 43.53484 | -75.72435 | 35709 ft | 393 kts | 226° |
| 2026-05-05 16:59 | 43.49490 | -75.77597 | 35711 ft | 394 kts | 226° |
| 2026-05-05 17:00 | 43.45492 | -75.82758 | 35708 ft | 393 kts | 226° |
| 2026-05-05 17:00 | 43.41523 | -75.87870 | 35714 ft | 393 kts | 226° |
| 2026-05-05 17:01 | 43.37535 | -75.92999 | 35716 ft | 393 kts | 226° |
| 2026-05-05 17:01 | 43.33530 | -75.98138 | 35722 ft | 394 kts | 226° |
| 2026-05-05 17:02 | 43.29525 | -76.03270 | 35733 ft | 394 kts | 226° |
| 2026-05-05 17:02 | 43.25515 | -76.08400 | 35741 ft | 394 kts | 226° |
| 2026-05-05 17:03 | 43.21488 | -76.13541 | 35751 ft | 398 kts | 226° |
| 2026-05-05 17:03 | 43.17416 | -76.18730 | 35727 ft | 399 kts | 226° |
| 2026-05-05 17:04 | 43.12815 | -76.23098 | 35745 ft | 407 kts | 216° |
| 2026-05-05 17:04 | 43.07992 | -76.27136 | 35744 ft | 407 kts | 216° |
| 2026-05-05 17:05 | 43.03175 | -76.31127 | 35747 ft | 407 kts | 216° |
| 2026-05-05 17:05 | 42.98324 | -76.35136 | 35726 ft | 408 kts | 216° |
| 2026-05-05 17:06 | 42.93440 | -76.39161 | 35751 ft | 410 kts | 216° |
| 2026-05-05 17:06 | 42.88570 | -76.43168 | 35740 ft | 410 kts | 216° |
| 2026-05-05 17:07 | 42.83683 | -76.47182 | 35759 ft | 410 kts | 216° |
| 2026-05-05 17:07 | 42.78785 | -76.51197 | 35768 ft | 411 kts | 216° |
| 2026-05-05 17:08 | 42.73903 | -76.55192 | 35767 ft | 408 kts | 216° |
| 2026-05-05 17:08 | 42.69035 | -76.59168 | 35771 ft | 408 kts | 216° |
| 2026-05-05 17:09 | 42.64175 | -76.63130 | 35755 ft | 408 kts | 216° |
| 2026-05-05 17:09 | 42.59283 | -76.67110 | 35777 ft | 411 kts | 216° |
| 2026-05-05 17:10 | 42.54398 | -76.71079 | 35784 ft | 411 kts | 216° |
| 2026-05-05 17:10 | 42.49485 | -76.75061 | 35775 ft | 411 kts | 216° |
| 2026-05-05 17:11 | 42.44579 | -76.79031 | 35761 ft | 412 kts | 216° |
| 2026-05-05 17:11 | 42.39633 | -76.83026 | 35774 ft | 414 kts | 216° |
| 2026-05-05 17:12 | 42.34683 | -76.87017 | 35762 ft | 414 kts | 216° |
| 2026-05-05 17:12 | 42.29747 | -76.90990 | 35757 ft | 412 kts | 216° |
| 2026-05-05 17:13 | 42.24817 | -76.94950 | 35726 ft | 415 kts | 218° |
| 2026-05-05 17:13 | 42.19846 | -76.98935 | 35770 ft | 421 kts | 218° |
| 2026-05-05 17:14 | 42.14806 | -77.02968 | 35769 ft | 421 kts | 218° |
| 2026-05-05 17:14 | 42.09769 | -77.06991 | 35799 ft | 422 kts | 218° |
| 2026-05-05 17:15 | 42.04716 | -77.11020 | 35782 ft | 422 kts | 218° |
| 2026-05-05 17:15 | 41.99677 | -77.15031 | 35783 ft | 422 kts | 218° |
| 2026-05-05 17:16 | 41.94614 | -77.19052 | 35778 ft | 422 kts | 218° |
| 2026-05-05 17:16 | 41.89565 | -77.23055 | 35784 ft | 422 kts | 218° |
| 2026-05-05 17:17 | 41.84511 | -77.27055 | 35787 ft | 421 kts | 218° |
| 2026-05-05 17:17 | 41.79481 | -77.31029 | 35769 ft | 420 kts | 218° |
| 2026-05-05 17:18 | 41.74435 | -77.35007 | 35803 ft | 421 kts | 218° |
| 2026-05-05 17:18 | 41.69388 | -77.38978 | 35782 ft | 422 kts | 218° |
| 2026-05-05 17:19 | 41.64296 | -77.42978 | 35803 ft | 425 kts | 218° |
| 2026-05-05 17:19 | 41.59243 | -77.46940 | 35797 ft | 425 kts | 218° |
| 2026-05-05 17:20 | 41.54153 | -77.50924 | 35813 ft | 424 kts | 218° |
| 2026-05-05 17:20 | 41.49054 | -77.54908 | 35802 ft | 425 kts | 218° |
| 2026-05-05 17:21 | 41.43932 | -77.58902 | 35821 ft | 427 kts | 218° |
| 2026-05-05 17:22 | 41.36296 | -77.64842 | 35829 ft | 421 kts | 218° |
| 2026-05-05 17:22 | 41.31231 | -77.68774 | 35812 ft | 422 kts | 218° |
| 2026-05-05 17:23 | 41.26145 | -77.72715 | 35823 ft | 423 kts | 218° |
| 2026-05-05 17:23 | 41.21061 | -77.76646 | 35824 ft | 423 kts | 218° |
| 2026-05-05 17:24 | 41.15979 | -77.80570 | 35825 ft | 423 kts | 218° |
| 2026-05-05 17:24 | 41.10888 | -77.84494 | 35819 ft | 424 kts | 218° |
| 2026-05-05 17:25 | 41.05796 | -77.88412 | 35848 ft | 426 kts | 218° |
| 2026-05-05 17:25 | 41.00674 | -77.92346 | 35858 ft | 426 kts | 217° |
| 2026-05-05 17:26 | 40.95568 | -77.96261 | 35859 ft | 426 kts | 218° |
| 2026-05-05 17:26 | 40.90294 | -77.99847 | 35854 ft | 435 kts | 205° |
| 2026-05-05 17:27 | 40.84508 | -78.02374 | 35843 ft | 437 kts | 206° |
| 2026-05-05 17:27 | 40.78734 | -78.04904 | 35868 ft | 438 kts | 206° |
| 2026-05-05 17:28 | 40.72952 | -78.07424 | 35849 ft | 437 kts | 206° |
| 2026-05-05 17:28 | 40.67171 | -78.09938 | 35856 ft | 440 kts | 206° |
| 2026-05-05 17:29 | 40.61348 | -78.12465 | 35859 ft | 440 kts | 206° |
| 2026-05-05 17:29 | 40.55534 | -78.14984 | 35868 ft | 440 kts | 206° |
| 2026-05-05 17:30 | 40.49750 | -78.17485 | 35854 ft | 441 kts | 206° |
| 2026-05-05 17:30 | 40.43916 | -78.20004 | 35885 ft | 443 kts | 206° |
| 2026-05-05 17:31 | 40.38059 | -78.22528 | 35892 ft | 443 kts | 206° |
| 2026-05-05 17:31 | 40.33195 | -78.24620 | 35892 ft | 442 kts | 206° |
| 2026-05-05 17:32 | 40.27333 | -78.27138 | 35873 ft | 445 kts | 206° |
| 2026-05-05 17:32 | 40.21450 | -78.29659 | 35869 ft | 445 kts | 206° |
| 2026-05-05 17:33 | 40.15533 | -78.32191 | 35888 ft | 447 kts | 206° |
| 2026-05-05 17:33 | 40.09633 | -78.34711 | 35886 ft | 446 kts | 206° |
| 2026-05-05 17:34 | 40.03735 | -78.37225 | 35881 ft | 446 kts | 206° |
| 2026-05-05 17:34 | 39.97841 | -78.39734 | 35881 ft | 446 kts | 206° |
| 2026-05-05 17:35 | 39.91972 | -78.42227 | 35889 ft | 446 kts | 206° |
| 2026-05-05 17:35 | 39.86062 | -78.44733 | 35882 ft | 448 kts | 205° |
| 2026-05-05 17:36 | 39.80133 | -78.47242 | 35901 ft | 449 kts | 205° |
| 2026-05-05 17:36 | 39.74199 | -78.49749 | 35900 ft | 449 kts | 205° |
| 2026-05-05 17:37 | 39.68258 | -78.52254 | 35858 ft | 449 kts | 206° |
| 2026-05-05 17:37 | 39.62277 | -78.54772 | 35908 ft | 454 kts | 205° |
| 2026-05-05 17:38 | 39.56262 | -78.57299 | 35903 ft | 454 kts | 205° |
| 2026-05-05 17:38 | 39.50268 | -78.59813 | 35902 ft | 454 kts | 205° |
| 2026-05-05 17:39 | 39.44258 | -78.62329 | 35898 ft | 454 kts | 205° |
| 2026-05-05 17:39 | 39.38283 | -78.64826 | 35898 ft | 454 kts | 205° |
| 2026-05-05 17:40 | 39.32258 | -78.67339 | 35904 ft | 455 kts | 205° |
| 2026-05-05 17:40 | 39.26238 | -78.69846 | 35908 ft | 455 kts | 206° |
| 2026-05-05 17:41 | 39.20199 | -78.72356 | 35907 ft | 457 kts | 206° |
| 2026-05-05 17:41 | 39.14133 | -78.74872 | 35917 ft | 457 kts | 206° |
| 2026-05-05 17:42 | 39.08079 | -78.77380 | 35913 ft | 457 kts | 206° |
| 2026-05-05 17:42 | 39.02070 | -78.79864 | 35906 ft | 458 kts | 206° |
| 2026-05-05 17:43 | 38.96000 | -78.82369 | 35924 ft | 459 kts | 206° |
| 2026-05-05 17:43 | 38.89921 | -78.84872 | 35922 ft | 458 kts | 206° |
| 2026-05-05 17:44 | 38.83848 | -78.87369 | 35931 ft | 459 kts | 206° |
| 2026-05-05 17:44 | 38.77770 | -78.89864 | 35925 ft | 461 kts | 206° |
| 2026-05-05 17:45 | 38.71636 | -78.92377 | 35919 ft | 462 kts | 206° |
| 2026-05-05 17:45 | 38.65506 | -78.94883 | 35952 ft | 463 kts | 206° |
| 2026-05-05 17:46 | 38.59364 | -78.97390 | 35927 ft | 462 kts | 206° |
| 2026-05-05 17:46 | 38.53235 | -78.99888 | 35974 ft | 465 kts | 206° |
| 2026-05-05 17:47 | 38.47071 | -79.02395 | 35964 ft | 464 kts | 206° |
| 2026-05-05 17:47 | 38.40912 | -79.04895 | 35960 ft | 464 kts | 206° |
| 2026-05-05 17:48 | 38.34754 | -79.07391 | 35952 ft | 465 kts | 207° |
| 2026-05-05 17:48 | 38.28633 | -79.09868 | 35960 ft | 465 kts | 207° |
| 2026-05-05 17:49 | 38.22457 | -79.12362 | 35982 ft | 465 kts | 207° |
| 2026-05-05 17:49 | 38.16297 | -79.14845 | 35973 ft | 465 kts | 207° |
| 2026-05-05 17:50 | 38.10128 | -79.17327 | 35974 ft | 466 kts | 207° |
| 2026-05-05 17:50 | 38.03929 | -79.19817 | 35971 ft | 466 kts | 207° |
| 2026-05-05 17:51 | 37.97782 | -79.22282 | 35962 ft | 466 kts | 207° |
| 2026-05-05 17:51 | 37.91588 | -79.24761 | 35988 ft | 467 kts | 207° |
| 2026-05-05 17:52 | 37.85407 | -79.27232 | 35997 ft | 467 kts | 207° |
| 2026-05-05 17:52 | 37.79213 | -79.29702 | 36004 ft | 467 kts | 207° |
| 2026-05-05 17:53 | 37.73016 | -79.32169 | 35985 ft | 466 kts | 207° |
| 2026-05-05 17:53 | 37.66814 | -79.34634 | 35992 ft | 469 kts | 207° |
| 2026-05-05 17:54 | 37.60592 | -79.37103 | 35999 ft | 469 kts | 206° |
| 2026-05-05 17:54 | 37.54365 | -79.39569 | 35994 ft | 469 kts | 207° |
| 2026-05-05 17:55 | 37.48154 | -79.42025 | 36010 ft | 470 kts | 207° |
| 2026-05-05 17:55 | 37.41907 | -79.44491 | 36022 ft | 472 kts | 207° |
| 2026-05-05 17:56 | 37.35659 | -79.46953 | 36012 ft | 470 kts | 207° |
| 2026-05-05 17:56 | 37.29412 | -79.49409 | 36007 ft | 471 kts | 207° |
| 2026-05-05 17:57 | 37.23164 | -79.51862 | 35965 ft | 471 kts | 207° |
| 2026-05-05 17:57 | 37.16876 | -79.54327 | 36000 ft | 474 kts | 207° |
| 2026-05-05 17:58 | 37.10590 | -79.56786 | 35999 ft | 473 kts | 207° |
| 2026-05-05 17:58 | 37.04340 | -79.59228 | 35999 ft | 473 kts | 207° |
| 2026-05-05 17:59 | 36.98039 | -79.61684 | 36002 ft | 475 kts | 206° |
| 2026-05-05 17:59 | 36.91717 | -79.64145 | 36007 ft | 476 kts | 206° |
| 2026-05-05 18:00 | 36.85396 | -79.66601 | 35998 ft | 476 kts | 206° |
| 2026-05-05 18:00 | 36.79090 | -79.69047 | 36024 ft | 475 kts | 206° |
| 2026-05-05 18:01 | 36.72740 | -79.71506 | 36027 ft | 479 kts | 206° |
| 2026-05-05 18:01 | 36.66430 | -79.73945 | 36037 ft | 478 kts | 206° |
| 2026-05-05 18:02 | 36.60069 | -79.76399 | 36044 ft | 478 kts | 206° |
| 2026-05-05 18:02 | 36.53700 | -79.78852 | 36031 ft | 479 kts | 206° |
| 2026-05-05 18:03 | 36.47325 | -79.81305 | 36056 ft | 480 kts | 206° |
| 2026-05-05 18:03 | 36.40967 | -79.83746 | 36053 ft | 479 kts | 206° |
| 2026-05-05 18:04 | 36.34645 | -79.86170 | 36058 ft | 479 kts | 206° |
| 2026-05-05 18:04 | 36.28278 | -79.88607 | 36034 ft | 480 kts | 206° |
| 2026-05-05 18:05 | 36.21871 | -79.91054 | 36061 ft | 481 kts | 206° |
| 2026-05-05 18:05 | 36.15488 | -79.93489 | 36067 ft | 481 kts | 206° |
| 2026-05-05 18:06 | 36.09082 | -79.95928 | 36057 ft | 481 kts | 206° |
| 2026-05-05 18:06 | 36.02790 | -79.98630 | 36069 ft | 474 kts | 212° |
| 2026-05-05 18:07 | 35.96664 | -80.01734 | 36056 ft | 476 kts | 211° |
| 2026-05-05 18:07 | 35.90563 | -80.04748 | 36049 ft | 476 kts | 211° |
| 2026-05-05 18:08 | 35.84403 | -80.07778 | 36059 ft | 476 kts | 211° |
| 2026-05-05 18:08 | 35.78226 | -80.10811 | 36066 ft | 479 kts | 211° |
| 2026-05-05 18:09 | 35.72050 | -80.13838 | 36065 ft | 479 kts | 211° |
| 2026-05-05 18:09 | 35.65856 | -80.16870 | 36057 ft | 479 kts | 211° |
| 2026-05-05 18:10 | 35.59660 | -80.19897 | 36088 ft | 479 kts | 211° |
| 2026-05-05 18:10 | 35.53450 | -80.22925 | 36104 ft | 479 kts | 211° |
| 2026-05-05 18:11 | 35.47309 | -80.25916 | 36112 ft | 479 kts | 211° |
| 2026-05-05 18:11 | 35.41111 | -80.28929 | 36106 ft | 479 kts | 211° |
| 2026-05-05 18:12 | 35.34908 | -80.31940 | 36073 ft | 480 kts | 211° |
| 2026-05-05 18:12 | 35.28685 | -80.34955 | 36091 ft | 482 kts | 211° |
| 2026-05-05 18:13 | 35.22460 | -80.37966 | 36078 ft | 481 kts | 211° |
| 2026-05-05 18:13 | 35.16223 | -80.40978 | 36068 ft | 481 kts | 211° |
| 2026-05-05 18:14 | 35.10000 | -80.43979 | 36052 ft | 481 kts | 211° |
| 2026-05-05 18:14 | 35.03794 | -80.46966 | 36082 ft | 483 kts | 211° |
| 2026-05-05 18:15 | 34.97560 | -80.49961 | 36080 ft | 482 kts | 211° |
| 2026-05-05 18:15 | 34.91307 | -80.52961 | 36081 ft | 482 kts | 211° |
| 2026-05-05 18:16 | 34.85067 | -80.55950 | 36063 ft | 481 kts | 212° |
| 2026-05-05 18:16 | 34.78853 | -80.58921 | 36073 ft | 480 kts | 212° |
| 2026-05-05 18:17 | 34.72635 | -80.61891 | 36074 ft | 480 kts | 211° |
| 2026-05-05 18:17 | 34.66424 | -80.64852 | 36084 ft | 480 kts | 211° |
| 2026-05-05 18:18 | 34.59980 | -80.67318 | 36078 ft | 488 kts | 206° |
| 2026-05-05 18:18 | 34.53500 | -80.69726 | 36083 ft | 487 kts | 207° |
| 2026-05-05 18:19 | 34.47020 | -80.72157 | 36081 ft | 487 kts | 207° |
| 2026-05-05 18:19 | 34.40583 | -80.74570 | 36082 ft | 487 kts | 207° |
| 2026-05-05 18:20 | 34.35158 | -80.76600 | 36063 ft | 487 kts | 207° |
| 2026-05-05 18:20 | 34.27646 | -80.79407 | 36084 ft | 487 kts | 207° |
| 2026-05-05 18:21 | 34.22219 | -80.81432 | 36087 ft | 487 kts | 207° |
| 2026-05-05 18:21 | 34.15793 | -80.83820 | 36079 ft | 487 kts | 207° |
| 2026-05-05 18:22 | 34.09271 | -80.86220 | 36075 ft | 487 kts | 207° |
| 2026-05-05 18:22 | 34.02838 | -80.88585 | 36085 ft | 487 kts | 207° |
| 2026-05-05 18:23 | 33.96350 | -80.90967 | 36084 ft | 487 kts | 207° |
| 2026-05-05 18:23 | 33.89870 | -80.93343 | 36093 ft | 487 kts | 207° |
| 2026-05-05 18:24 | 33.83359 | -80.95725 | 36295 ft | 490 kts | 207° |
| 2026-05-05 18:24 | 33.80094 | -80.96918 | 36549 ft | 490 kts | 207° |
| 2026-05-05 18:24 | 33.76828 | -80.98111 | 36808 ft | 490 kts | 207° |
| 2026-05-05 18:24 | 33.73572 | -80.99299 | 37049 ft | 489 kts | 207° |
| 2026-05-05 18:25 | 33.70314 | -81.00487 | 37302 ft | 488 kts | 207° |
| 2026-05-05 18:25 | 33.68161 | -81.01272 | 37470 ft | 488 kts | 207° |
| 2026-05-05 18:25 | 33.63815 | -81.02854 | 37772 ft | 487 kts | 208° |
| 2026-05-05 18:25 | 33.60569 | -81.04035 | 37960 ft | 486 kts | 208° |
| 2026-05-05 18:26 | 33.57352 | -81.05204 | 38122 ft | 485 kts | 208° |
| 2026-05-05 18:26 | 33.50946 | -81.07529 | 38074 ft | 482 kts | 208° |
| 2026-05-05 18:27 | 33.44529 | -81.09856 | 38079 ft | 483 kts | 208° |
| 2026-05-05 18:27 | 33.38091 | -81.12186 | 38077 ft | 482 kts | 208° |
| 2026-05-05 18:28 | 33.28453 | -81.15667 | 38087 ft | 483 kts | 208° |
| 2026-05-05 18:28 | 33.22022 | -81.17985 | 38092 ft | 483 kts | 208° |
| 2026-05-05 18:29 | 33.15595 | -81.20299 | 38093 ft | 483 kts | 208° |
| 2026-05-05 18:29 | 33.09212 | -81.22593 | 38096 ft | 483 kts | 208° |
| 2026-05-05 18:30 | 33.02778 | -81.24902 | 38089 ft | 483 kts | 208° |
| 2026-05-05 18:30 | 32.96340 | -81.27208 | 38092 ft | 482 kts | 208° |
| 2026-05-05 18:31 | 32.89913 | -81.29508 | 38091 ft | 481 kts | 208° |
| 2026-05-05 18:31 | 32.83537 | -81.31786 | 38058 ft | 480 kts | 209° |
| 2026-05-05 18:32 | 32.77130 | -81.34071 | 38089 ft | 480 kts | 209° |
| 2026-05-05 18:32 | 32.70728 | -81.36351 | 38080 ft | 480 kts | 209° |
| 2026-05-05 18:33 | 32.64345 | -81.38622 | 38077 ft | 480 kts | 209° |
| 2026-05-05 18:33 | 32.57946 | -81.40893 | 38041 ft | 480 kts | 208° |
| 2026-05-05 18:34 | 32.51529 | -81.43168 | 38085 ft | 482 kts | 208° |
| 2026-05-05 18:34 | 32.45149 | -81.45427 | 38078 ft | 481 kts | 208° |
| 2026-05-05 18:35 | 32.38750 | -81.47689 | 38083 ft | 481 kts | 208° |
| 2026-05-05 18:35 | 32.32326 | -81.49956 | 38051 ft | 481 kts | 208° |
| 2026-05-05 18:36 | 32.25907 | -81.52219 | 38090 ft | 482 kts | 208° |
| 2026-05-05 18:36 | 32.19480 | -81.54480 | 38085 ft | 482 kts | 208° |
| 2026-05-05 18:37 | 32.13060 | -81.56736 | 38083 ft | 482 kts | 208° |
| 2026-05-05 18:37 | 32.06668 | -81.58979 | 38044 ft | 482 kts | 208° |
| 2026-05-05 18:38 | 32.00236 | -81.61233 | 38091 ft | 483 kts | 208° |
| 2026-05-05 18:38 | 31.93802 | -81.63484 | 38086 ft | 482 kts | 208° |
| 2026-05-05 18:39 | 31.87386 | -81.65725 | 38068 ft | 482 kts | 208° |
| 2026-05-05 18:39 | 31.81010 | -81.67950 | 38078 ft | 480 kts | 208° |
| 2026-05-05 18:40 | 31.74602 | -81.70182 | 38073 ft | 481 kts | 208° |
| 2026-05-05 18:40 | 31.68191 | -81.72412 | 38074 ft | 480 kts | 208° |
| 2026-05-05 18:41 | 31.61782 | -81.74638 | 38113 ft | 480 kts | 208° |
| 2026-05-05 18:41 | 31.55367 | -81.76863 | 38128 ft | 481 kts | 208° |
| 2026-05-05 18:42 | 31.48943 | -81.79089 | 38117 ft | 480 kts | 208° |
| 2026-05-05 18:42 | 31.42589 | -81.81286 | 38110 ft | 480 kts | 208° |
| 2026-05-05 18:43 | 31.36173 | -81.83502 | 38103 ft | 480 kts | 208° |
| 2026-05-05 18:43 | 31.29752 | -81.85716 | 38092 ft | 480 kts | 208° |
| 2026-05-05 18:44 | 31.23333 | -81.87927 | 38059 ft | 480 kts | 208° |
| 2026-05-05 18:44 | 31.16936 | -81.90127 | 38079 ft | 481 kts | 208° |
| 2026-05-05 18:45 | 31.10517 | -81.92331 | 38078 ft | 480 kts | 208° |
| 2026-05-05 18:45 | 31.04098 | -81.94533 | 38079 ft | 480 kts | 208° |
| 2026-05-05 18:46 | 30.97725 | -81.96715 | 38086 ft | 480 kts | 208° |
| 2026-05-05 18:46 | 30.91324 | -81.98905 | 38152 ft | 480 kts | 208° |
| 2026-05-05 18:47 | 30.84898 | -82.01099 | 38149 ft | 480 kts | 208° |
| 2026-05-05 18:47 | 30.78480 | -82.03288 | 38184 ft | 480 kts | 208° |
| 2026-05-05 18:48 | 30.72088 | -82.05465 | 38186 ft | 480 kts | 208° |
| 2026-05-05 18:48 | 30.65700 | -82.07638 | 38184 ft | 480 kts | 208° |
| 2026-05-05 18:49 | 30.59004 | -82.08951 | 38155 ft | 509 kts | 186° |
| 2026-05-05 18:49 | 30.51883 | -82.08254 | 38148 ft | 515 kts | 184° |
| 2026-05-05 18:50 | 30.44763 | -82.07464 | 38156 ft | 516 kts | 184° |
| 2026-05-05 18:50 | 30.37609 | -82.06638 | 38147 ft | 516 kts | 184° |
| 2026-05-05 18:51 | 30.30454 | -82.05812 | 38144 ft | 516 kts | 184° |
| 2026-05-05 18:51 | 30.23352 | -82.04994 | 38151 ft | 516 kts | 184° |
| 2026-05-05 18:52 | 30.16207 | -82.04171 | 38120 ft | 516 kts | 184° |
| 2026-05-05 18:52 | 30.09058 | -82.03349 | 38114 ft | 516 kts | 184° |
| 2026-05-05 18:53 | 30.01956 | -82.02534 | 38129 ft | 516 kts | 184° |
| 2026-05-05 18:53 | 29.94786 | -82.01713 | 38142 ft | 516 kts | 184° |
| 2026-05-05 18:54 | 29.87685 | -82.00900 | 38113 ft | 516 kts | 184° |
| 2026-05-05 18:54 | 29.80554 | -82.00085 | 38097 ft | 516 kts | 183° |
| 2026-05-05 18:55 | 29.73405 | -81.99269 | 38096 ft | 515 kts | 184° |
| 2026-05-05 18:55 | 29.66285 | -81.98459 | 38091 ft | 515 kts | 184° |
| 2026-05-05 18:56 | 29.59152 | -81.97647 | 38100 ft | 515 kts | 184° |
| 2026-05-05 18:56 | 29.51999 | -81.96834 | 38090 ft | 515 kts | 183° |
| 2026-05-05 18:57 | 29.44871 | -81.96025 | 38087 ft | 515 kts | 183° |
| 2026-05-05 18:57 | 29.37736 | -81.95217 | 38088 ft | 515 kts | 183° |
| 2026-05-05 18:58 | 29.30597 | -81.94409 | 38084 ft | 515 kts | 183° |
| 2026-05-05 18:58 | 29.23507 | -81.93608 | 38084 ft | 515 kts | 183° |
| 2026-05-05 18:59 | 29.16393 | -81.92806 | 38081 ft | 515 kts | 183° |
| 2026-05-05 18:59 | 29.09259 | -81.92002 | 38079 ft | 515 kts | 183° |
| 2026-05-05 19:00 | 29.02136 | -81.91200 | 38078 ft | 515 kts | 183° |
| 2026-05-05 19:00 | 28.95009 | -81.90400 | 38078 ft | 514 kts | 183° |
| 2026-05-05 19:01 | 28.87882 | -81.89600 | 38074 ft | 514 kts | 183° |
| 2026-05-05 19:01 | 28.80810 | -81.88808 | 38081 ft | 514 kts | 183° |
| 2026-05-05 19:02 | 28.73693 | -81.88011 | 38083 ft | 514 kts | 183° |
| 2026-05-05 19:02 | 28.66594 | -81.87218 | 38072 ft | 513 kts | 182° |
| 2026-05-05 19:03 | 28.59482 | -81.86424 | 38079 ft | 513 kts | 182° |
| 2026-05-05 19:03 | 28.52372 | -81.85632 | 38076 ft | 513 kts | 182° |
| 2026-05-05 19:04 | 28.45268 | -81.84842 | 38077 ft | 513 kts | 182° |
| 2026-05-05 19:04 | 28.38166 | -81.84052 | 38059 ft | 513 kts | 182° |
| 2026-05-05 19:05 | 28.31101 | -81.83268 | 38062 ft | 513 kts | 182° |
| 2026-05-05 19:05 | 28.23993 | -81.82481 | 38077 ft | 513 kts | 182° |
| 2026-05-05 19:06 | 28.16896 | -81.81695 | 38079 ft | 513 kts | 182° |
| 2026-05-05 19:06 | 28.09788 | -81.80909 | 38057 ft | 513 kts | 182° |
| 2026-05-05 19:07 | 28.03878 | -81.80257 | 38076 ft | 513 kts | 182° |
| 2026-05-05 19:07 | 27.95584 | -81.79342 | 38066 ft | 513 kts | 182° |
| 2026-05-05 19:08 | 27.88481 | -81.78560 | 38064 ft | 513 kts | 182° |
| 2026-05-05 19:08 | 27.81366 | -81.77777 | 38031 ft | 513 kts | 181° |
| 2026-05-05 19:09 | 27.74278 | -81.76999 | 38065 ft | 513 kts | 181° |
| 2026-05-05 19:09 | 27.67266 | -81.76653 | 38066 ft | 506 kts | 188° |
| 2026-05-05 19:10 | 27.60220 | -81.76691 | 38059 ft | 506 kts | 188° |
| 2026-05-05 19:10 | 27.53179 | -81.76749 | 38056 ft | 506 kts | 188° |
| 2026-05-05 19:11 | 27.47301 | -81.76798 | 38057 ft | 506 kts | 188° |
| 2026-05-05 19:11 | 27.40262 | -81.76857 | 38051 ft | 506 kts | 188° |
| 2026-05-05 19:12 | 27.33212 | -81.76915 | 38044 ft | 506 kts | 188° |
| 2026-05-05 19:12 | 27.26221 | -81.76973 | 38043 ft | 506 kts | 188° |
| 2026-05-05 19:13 | 27.19197 | -81.77032 | 38034 ft | 506 kts | 188° |
| 2026-05-05 19:13 | 27.12146 | -81.77090 | 38039 ft | 506 kts | 188° |
| 2026-05-05 19:14 | 27.05107 | -81.77148 | 38038 ft | 506 kts | 188° |
| 2026-05-05 19:14 | 26.98077 | -81.77206 | 38035 ft | 506 kts | 188° |
| 2026-05-05 19:15 | 26.91031 | -81.77264 | 38016 ft | 506 kts | 187° |
| 2026-05-05 19:15 | 26.83982 | -81.77322 | 38035 ft | 507 kts | 187° |
| 2026-05-05 19:16 | 26.76926 | -81.77381 | 38037 ft | 506 kts | 187° |
| 2026-05-05 19:16 | 26.69895 | -81.77438 | 38019 ft | 507 kts | 187° |
| 2026-05-05 19:17 | 26.62835 | -81.77496 | 37982 ft | 506 kts | 187° |
| 2026-05-05 19:17 | 26.55796 | -81.77548 | 38027 ft | 507 kts | 186° |
| 2026-05-05 19:18 | 26.52257 | -81.77071 | 37995 ft | 518 kts | 169° |
| 2026-05-05 19:18 | 26.48835 | -81.75840 | 38050 ft | 521 kts | 166° |
| 2026-05-05 19:18 | 26.41937 | -81.73227 | 38021 ft | 523 kts | 165° |
| 2026-05-05 19:19 | 26.35099 | -81.70559 | 38027 ft | 524 kts | 165° |
| 2026-05-05 19:19 | 26.28222 | -81.67867 | 38028 ft | 523 kts | 165° |
| 2026-05-05 19:20 | 26.21364 | -81.65187 | 38044 ft | 523 kts | 165° |
| 2026-05-05 19:20 | 26.14480 | -81.62499 | 38034 ft | 524 kts | 165° |
| 2026-05-05 19:21 | 26.07590 | -81.59813 | 38032 ft | 524 kts | 165° |
| 2026-05-05 19:21 | 26.00715 | -81.57136 | 38002 ft | 524 kts | 165° |
| 2026-05-05 19:22 | 25.93846 | -81.54464 | 38022 ft | 523 kts | 165° |
| 2026-05-05 19:22 | 25.86980 | -81.51797 | 38028 ft | 523 kts | 165° |
| 2026-05-05 19:23 | 25.80111 | -81.49132 | 38030 ft | 523 kts | 165° |
| 2026-05-05 19:23 | 25.73296 | -81.46491 | 38020 ft | 523 kts | 165° |
| 2026-05-05 19:24 | 25.66422 | -81.43831 | 38015 ft | 522 kts | 164° |
| 2026-05-05 19:24 | 25.59576 | -81.41184 | 38025 ft | 522 kts | 164° |
| 2026-05-05 19:25 | 25.52733 | -81.38542 | 38025 ft | 522 kts | 164° |
| 2026-05-05 19:25 | 25.45877 | -81.35898 | 38036 ft | 522 kts | 164° |
| 2026-05-05 19:26 | 25.39006 | -81.33252 | 38029 ft | 522 kts | 164° |
| 2026-05-05 19:26 | 25.32161 | -81.30619 | 38026 ft | 521 kts | 164° |
| 2026-05-05 19:27 | 25.25363 | -81.28007 | 38041 ft | 521 kts | 164° |
| 2026-05-05 19:27 | 25.18508 | -81.25375 | 38038 ft | 522 kts | 164° |
| 2026-05-05 19:28 | 25.11646 | -81.22746 | 38032 ft | 522 kts | 164° |
| 2026-05-05 19:28 | 25.04809 | -81.20127 | 38014 ft | 521 kts | 163° |
| 2026-05-05 19:29 | 24.97948 | -81.17504 | 38031 ft | 521 kts | 164° |
| 2026-05-05 19:29 | 24.91097 | -81.14887 | 38034 ft | 521 kts | 163° |
| 2026-05-05 19:30 | 24.84246 | -81.12274 | 38034 ft | 521 kts | 164° |
| 2026-05-05 19:30 | 24.77414 | -81.09670 | 38036 ft | 521 kts | 164° |
| 2026-05-05 19:31 | 24.70605 | -81.07078 | 38027 ft | 520 kts | 163° |
| 2026-05-05 19:31 | 24.63763 | -81.04476 | 38036 ft | 520 kts | 163° |
| 2026-05-05 19:32 | 24.56909 | -81.02059 | 38011 ft | 514 kts | 174° |
| 2026-05-05 19:32 | 24.49851 | -81.01678 | 38012 ft | 509 kts | 184° |
| 2026-05-05 19:33 | 24.42774 | -81.01558 | 38036 ft | 508 kts | 184° |
| 2026-05-05 19:33 | 24.35693 | -81.01493 | 38031 ft | 508 kts | 184° |
| 2026-05-05 19:34 | 24.28634 | -81.01434 | 38032 ft | 508 kts | 184° |
| 2026-05-05 19:35 | 24.18036 | -81.01345 | 38027 ft | 508 kts | 184° |
| 2026-05-05 19:35 | 24.11013 | -81.01286 | 38011 ft | 508 kts | 184° |
| 2026-05-05 19:36 | 24.03954 | -81.01227 | 38036 ft | 508 kts | 184° |
| 2026-05-05 19:36 | 23.96882 | -81.01009 | 38035 ft | 509 kts | 182° |
| 2026-05-05 19:37 | 23.89802 | -81.00706 | 38031 ft | 509 kts | 182° |
| 2026-05-05 19:37 | 23.82735 | -81.00414 | 38026 ft | 509 kts | 182° |
| 2026-05-05 19:38 | 23.75672 | -81.00122 | 38031 ft | 508 kts | 182° |
| 2026-05-05 19:38 | 23.68599 | -80.99830 | 38024 ft | 508 kts | 182° |
| 2026-05-05 19:39 | 23.61530 | -80.99539 | 38027 ft | 508 kts | 182° |
| 2026-05-05 19:39 | 23.54479 | -80.99249 | 38026 ft | 508 kts | 182° |
| 2026-05-05 19:40 | 23.47461 | -80.98959 | 38007 ft | 508 kts | 182° |
| 2026-05-05 19:40 | 23.40401 | -80.98670 | 38023 ft | 508 kts | 182° |
| 2026-05-05 19:41 | 23.33351 | -80.98381 | 38022 ft | 508 kts | 182° |
| 2026-05-05 19:41 | 23.26289 | -80.98088 | 38024 ft | 508 kts | 182° |
| 2026-05-05 19:42 | 23.19216 | -80.97789 | 38019 ft | 507 kts | 181° |
| 2026-05-05 19:42 | 23.12169 | -80.97492 | 38022 ft | 507 kts | 181° |
| 2026-05-05 19:43 | 23.05129 | -80.97191 | 38021 ft | 507 kts | 181° |
| 2026-05-05 19:43 | 22.98078 | -80.96909 | 38023 ft | 507 kts | 181° |
| 2026-05-05 19:44 | 22.91031 | -80.96632 | 38019 ft | 507 kts | 181° |
| 2026-05-05 19:44 | 22.83999 | -80.96356 | 37988 ft | 507 kts | 181° |
| 2026-05-05 19:45 | 22.76948 | -80.96079 | 38018 ft | 506 kts | 181° |
| 2026-05-05 19:45 | 22.69921 | -80.95803 | 38009 ft | 506 kts | 181° |
| 2026-05-05 19:46 | 22.62880 | -80.95527 | 38006 ft | 506 kts | 181° |
| 2026-05-05 19:46 | 22.55899 | -80.95254 | 38008 ft | 506 kts | 181° |
| 2026-05-05 19:47 | 22.48862 | -80.94979 | 38003 ft | 505 kts | 181° |
| 2026-05-05 19:47 | 22.41824 | -80.94704 | 38007 ft | 505 kts | 181° |
| 2026-05-05 19:48 | 22.34817 | -80.94430 | 38007 ft | 505 kts | 181° |
| 2026-05-05 19:48 | 22.27790 | -80.94156 | 38009 ft | 505 kts | 181° |
| 2026-05-05 19:49 | 22.20762 | -80.93883 | 38010 ft | 505 kts | 181° |
| 2026-05-05 19:49 | 22.13742 | -80.93610 | 38009 ft | 504 kts | 181° |
| 2026-05-05 19:50 | 22.06746 | -80.93337 | 38009 ft | 504 kts | 181° |
| 2026-05-05 19:50 | 21.99781 | -80.93067 | 38009 ft | 504 kts | 181° |
| 2026-05-05 19:51 | 21.92764 | -80.92795 | 38016 ft | 504 kts | 181° |
| 2026-05-05 19:51 | 21.85758 | -80.92523 | 38004 ft | 503 kts | 181° |
| 2026-05-05 19:52 | 21.78795 | -80.92254 | 38012 ft | 501 kts | 181° |
| 2026-05-05 19:52 | 21.71822 | -80.91984 | 38017 ft | 501 kts | 181° |
| 2026-05-05 19:53 | 21.64849 | -80.91714 | 38015 ft | 501 kts | 181° |
| 2026-05-05 19:53 | 21.57887 | -80.91446 | 38015 ft | 501 kts | 181° |
| 2026-05-05 19:54 | 21.50970 | -80.91178 | 38013 ft | 499 kts | 181° |
| 2026-05-05 19:54 | 21.44039 | -80.90910 | 38018 ft | 498 kts | 181° |
| 2026-05-05 19:55 | 21.37108 | -80.90641 | 38014 ft | 497 kts | 181° |
| 2026-05-05 19:55 | 21.30198 | -80.90374 | 38015 ft | 498 kts | 181° |
| 2026-05-05 19:56 | 21.23271 | -80.90106 | 38015 ft | 498 kts | 181° |
| 2026-05-05 19:56 | 21.17521 | -80.89884 | 38015 ft | 498 kts | 181° |
| 2026-05-05 19:57 | 21.10604 | -80.89616 | 38015 ft | 498 kts | 181° |
| 2026-05-05 19:57 | 21.03692 | -80.89324 | 38015 ft | 498 kts | 180° |
| 2026-05-05 19:58 | 20.95647 | -80.88970 | 38010 ft | 498 kts | 180° |
| 2026-05-05 19:58 | 20.89847 | -80.88716 | 38010 ft | 498 kts | 180° |
| 2026-05-05 19:59 | 20.82962 | -80.88415 | 38008 ft | 495 kts | 180° |
| 2026-05-05 19:59 | 20.76085 | -80.88114 | 38010 ft | 495 kts | 180° |
| 2026-05-05 20:00 | 20.69210 | -80.87814 | 38006 ft | 494 kts | 180° |
| 2026-05-05 20:00 | 20.62326 | -80.87513 | 38010 ft | 495 kts | 180° |
| 2026-05-05 20:01 | 20.55501 | -80.87216 | 38001 ft | 494 kts | 180° |
| 2026-05-05 20:01 | 20.48645 | -80.86917 | 38005 ft | 493 kts | 180° |
| 2026-05-05 20:02 | 20.41782 | -80.86619 | 38007 ft | 493 kts | 180° |
| 2026-05-05 20:02 | 20.34950 | -80.86321 | 38007 ft | 493 kts | 180° |
| 2026-05-05 20:03 | 20.28090 | -80.86023 | 38007 ft | 493 kts | 180° |
| 2026-05-05 20:03 | 20.21236 | -80.85726 | 37994 ft | 493 kts | 180° |
| 2026-05-05 20:04 | 20.14423 | -80.85430 | 38004 ft | 493 kts | 180° |
| 2026-05-05 20:04 | 20.07554 | -80.85133 | 38006 ft | 492 kts | 180° |
| 2026-05-05 20:05 | 20.00743 | -80.84835 | 38007 ft | 493 kts | 180° |
| 2026-05-05 20:05 | 19.93888 | -80.84503 | 38005 ft | 493 kts | 180° |
| 2026-05-05 20:06 | 19.87046 | -80.84173 | 37997 ft | 493 kts | 180° |
| 2026-05-05 20:06 | 19.80189 | -80.83844 | 38004 ft | 494 kts | 180° |
| 2026-05-05 20:07 | 19.73327 | -80.83515 | 38001 ft | 494 kts | 180° |
| 2026-05-05 20:07 | 19.66447 | -80.83185 | 37999 ft | 494 kts | 180° |
| 2026-05-05 20:08 | 19.59599 | -80.82857 | 37997 ft | 494 kts | 180° |
| 2026-05-05 20:08 | 19.52725 | -80.82528 | 37992 ft | 494 kts | 180° |
| 2026-05-05 20:09 | 19.45896 | -80.82202 | 37998 ft | 494 kts | 180° |
| 2026-05-05 20:09 | 19.39040 | -80.81874 | 38004 ft | 494 kts | 180° |
| 2026-05-05 20:10 | 19.32183 | -80.81546 | 37994 ft | 494 kts | 180° |
| 2026-05-05 20:10 | 19.25312 | -80.81219 | 38000 ft | 494 kts | 180° |
| 2026-05-05 20:11 | 19.18441 | -80.80891 | 37993 ft | 493 kts | 179° |
| 2026-05-05 20:11 | 19.11590 | -80.80565 | 37997 ft | 493 kts | 179° |
| 2026-05-05 20:12 | 19.04792 | -80.80242 | 37991 ft | 493 kts | 179° |
| 2026-05-05 20:12 | 18.97945 | -80.79916 | 38001 ft | 493 kts | 179° |
| 2026-05-05 20:13 | 18.91084 | -80.79590 | 38002 ft | 493 kts | 179° |
| 2026-05-05 20:13 | 18.84262 | -80.79266 | 37986 ft | 490 kts | 179° |
| 2026-05-05 20:14 | 18.77451 | -80.78943 | 37992 ft | 489 kts | 179° |
| 2026-05-05 20:14 | 18.70648 | -80.78621 | 37987 ft | 489 kts | 179° |
| 2026-05-05 20:15 | 18.63835 | -80.78298 | 37990 ft | 489 kts | 179° |
| 2026-05-05 20:15 | 18.57035 | -80.77977 | 37986 ft | 490 kts | 179° |
| 2026-05-05 20:16 | 18.50244 | -80.77656 | 37995 ft | 487 kts | 180° |
| 2026-05-05 20:16 | 18.43482 | -80.77336 | 37982 ft | 486 kts | 180° |
| 2026-05-05 20:17 | 18.36761 | -80.77019 | 37987 ft | 486 kts | 180° |
| 2026-05-05 20:17 | 18.30010 | -80.76700 | 37988 ft | 486 kts | 180° |
| 2026-05-05 20:18 | 18.23242 | -80.76381 | 37991 ft | 486 kts | 180° |
| 2026-05-05 20:18 | 18.16488 | -80.76063 | 37985 ft | 484 kts | 180° |
| 2026-05-05 20:19 | 18.09772 | -80.75747 | 37983 ft | 484 kts | 180° |
| 2026-05-05 20:19 | 18.03046 | -80.75431 | 37981 ft | 484 kts | 180° |
| 2026-05-05 20:20 | 17.96363 | -80.75117 | 37982 ft | 484 kts | 180° |
| 2026-05-05 20:20 | 17.89627 | -80.74801 | 37980 ft | 484 kts | 180° |
| 2026-05-05 20:21 | 17.82912 | -80.74486 | 37984 ft | 484 kts | 180° |
| 2026-05-05 20:21 | 17.76188 | -80.74171 | 37976 ft | 484 kts | 180° |
| 2026-05-05 20:22 | 17.69468 | -80.73856 | 37983 ft | 484 kts | 180° |
| 2026-05-05 20:22 | 17.62742 | -80.73541 | 37981 ft | 484 kts | 180° |
| 2026-05-05 20:23 | 17.56060 | -80.73229 | 37972 ft | 484 kts | 180° |
| 2026-05-05 20:23 | 17.49340 | -80.72915 | 37971 ft | 482 kts | 179° |
| 2026-05-05 20:24 | 17.42650 | -80.72602 | 37972 ft | 481 kts | 179° |
| 2026-05-05 20:24 | 17.35965 | -80.72290 | 37971 ft | 481 kts | 179° |
| 2026-05-05 20:25 | 17.29292 | -80.71979 | 37977 ft | 481 kts | 179° |
| 2026-05-05 20:25 | 17.22606 | -80.71668 | 37971 ft | 481 kts | 179° |
| 2026-05-05 20:26 | 17.15926 | -80.71356 | 37961 ft | 480 kts | 179° |
| 2026-05-05 20:26 | 17.09258 | -80.71046 | 37970 ft | 480 kts | 179° |
| 2026-05-05 20:27 | 17.02596 | -80.70737 | 37972 ft | 480 kts | 179° |
| 2026-05-05 20:27 | 16.95921 | -80.70426 | 37968 ft | 480 kts | 179° |
| 2026-05-05 20:28 | 16.89287 | -80.70118 | 37966 ft | 480 kts | 179° |
| 2026-05-05 20:28 | 16.82638 | -80.69810 | 37958 ft | 480 kts | 179° |
| 2026-05-05 20:29 | 16.75985 | -80.69501 | 37964 ft | 478 kts | 179° |
| 2026-05-05 20:29 | 16.69339 | -80.69194 | 37964 ft | 478 kts | 179° |
| 2026-05-05 20:30 | 16.62683 | -80.68885 | 37959 ft | 478 kts | 179° |
| 2026-05-05 20:30 | 16.56052 | -80.68578 | 37962 ft | 478 kts | 179° |
| 2026-05-05 20:31 | 16.49396 | -80.68270 | 37962 ft | 478 kts | 179° |
| 2026-05-05 20:31 | 16.42749 | -80.67964 | 37960 ft | 477 kts | 180° |
| 2026-05-05 20:32 | 16.36118 | -80.67657 | 37958 ft | 477 kts | 180° |
| 2026-05-05 20:32 | 16.29550 | -80.67354 | 37957 ft | 477 kts | 180° |
| 2026-05-05 20:33 | 16.22917 | -80.67048 | 37959 ft | 477 kts | 180° |
| 2026-05-05 20:33 | 16.16284 | -80.66743 | 37958 ft | 477 kts | 180° |
| 2026-05-05 20:34 | 16.09680 | -80.66439 | 37954 ft | 475 kts | 180° |
| 2026-05-05 20:34 | 16.03062 | -80.66134 | 37952 ft | 475 kts | 180° |
| 2026-05-05 20:35 | 15.96455 | -80.65830 | 37958 ft | 475 kts | 180° |
| 2026-05-05 20:35 | 15.89837 | -80.65526 | 37954 ft | 475 kts | 180° |
| 2026-05-05 20:36 | 15.83282 | -80.65225 | 37953 ft | 475 kts | 180° |
| 2026-05-05 20:36 | 15.76679 | -80.64922 | 37942 ft | 475 kts | 180° |
| 2026-05-05 20:37 | 15.70068 | -80.64619 | 37945 ft | 475 kts | 180° |
| 2026-05-05 20:37 | 15.63464 | -80.64316 | 37946 ft | 475 kts | 180° |
| 2026-05-05 20:38 | 15.56862 | -80.64014 | 37939 ft | 475 kts | 180° |
| 2026-05-05 20:38 | 15.50289 | -80.63713 | 37941 ft | 475 kts | 180° |
| 2026-05-05 20:39 | 15.43682 | -80.63410 | 37939 ft | 475 kts | 179° |
| 2026-05-05 20:39 | 15.37088 | -80.63109 | 37940 ft | 474 kts | 179° |
| 2026-05-05 20:40 | 15.30585 | -80.62812 | 37943 ft | 474 kts | 179° |
| 2026-05-05 20:40 | 15.23993 | -80.62511 | 37942 ft | 474 kts | 179° |
| 2026-05-05 20:41 | 15.17390 | -80.62209 | 37941 ft | 474 kts | 179° |
| 2026-05-05 20:41 | 15.10804 | -80.61909 | 37937 ft | 474 kts | 179° |
| 2026-05-05 20:42 | 15.04252 | -80.61610 | 37936 ft | 470 kts | 180° |
| 2026-05-05 20:42 | 14.97791 | -80.61012 | 37939 ft | 470 kts | 173° |
| 2026-05-05 20:43 | 14.91325 | -80.59922 | 37928 ft | 471 kts | 173° |
| 2026-05-05 20:43 | 14.84874 | -80.58814 | 37933 ft | 471 kts | 173° |
| 2026-05-05 20:44 | 14.78409 | -80.57703 | 37927 ft | 471 kts | 173° |
| 2026-05-05 20:44 | 14.71944 | -80.56592 | 37920 ft | 471 kts | 173° |
| 2026-05-05 20:45 | 14.63350 | -80.55117 | 37928 ft | 470 kts | 173° |
| 2026-05-05 20:45 | 14.56907 | -80.54012 | 37924 ft | 470 kts | 173° |
| 2026-05-05 20:46 | 14.50456 | -80.52906 | 37927 ft | 470 kts | 173° |
| 2026-05-05 20:46 | 14.43986 | -80.51797 | 37924 ft | 470 kts | 173° |
| 2026-05-05 20:47 | 14.37526 | -80.50691 | 37925 ft | 470 kts | 173° |
| 2026-05-05 20:47 | 14.31078 | -80.49588 | 37922 ft | 470 kts | 173° |
| 2026-05-05 20:48 | 14.24659 | -80.48490 | 37929 ft | 470 kts | 173° |
| 2026-05-05 20:48 | 14.18205 | -80.47387 | 37926 ft | 470 kts | 173° |
| 2026-05-05 20:49 | 14.11742 | -80.46283 | 37923 ft | 470 kts | 173° |
| 2026-05-05 20:49 | 14.05293 | -80.45182 | 37921 ft | 470 kts | 173° |
| 2026-05-05 20:50 | 13.98825 | -80.44078 | 37922 ft | 471 kts | 173° |
| 2026-05-05 20:50 | 13.92354 | -80.42974 | 37920 ft | 471 kts | 173° |
| 2026-05-05 20:51 | 13.85897 | -80.41874 | 37915 ft | 471 kts | 173° |
| 2026-05-05 20:51 | 13.79417 | -80.40770 | 37916 ft | 471 kts | 173° |
| 2026-05-05 20:52 | 13.72949 | -80.39668 | 37915 ft | 471 kts | 173° |
| 2026-05-05 20:52 | 13.66514 | -80.38574 | 37910 ft | 471 kts | 172° |
| 2026-05-05 20:53 | 13.60087 | -80.37481 | 37906 ft | 468 kts | 172° |
| 2026-05-05 20:53 | 13.53658 | -80.36388 | 37917 ft | 468 kts | 172° |
| 2026-05-05 20:54 | 13.47224 | -80.35295 | 37913 ft | 468 kts | 172° |
| 2026-05-05 20:54 | 13.40793 | -80.34203 | 37912 ft | 468 kts | 172° |
| 2026-05-05 20:55 | 13.34413 | -80.33120 | 37916 ft | 468 kts | 172° |
| 2026-05-05 20:55 | 13.27984 | -80.32030 | 37908 ft | 468 kts | 172° |
| 2026-05-05 20:56 | 13.21547 | -80.30939 | 37909 ft | 469 kts | 173° |
| 2026-05-05 20:56 | 13.15111 | -80.29849 | 37907 ft | 468 kts | 172° |
| 2026-05-05 20:57 | 13.08686 | -80.28760 | 37903 ft | 468 kts | 172° |
| 2026-05-05 20:57 | 13.02261 | -80.27673 | 37902 ft | 469 kts | 172° |
| 2026-05-05 20:58 | 12.95823 | -80.26584 | 37899 ft | 468 kts | 172° |
| 2026-05-05 20:58 | 12.89370 | -80.25494 | 37910 ft | 472 kts | 172° |
| 2026-05-05 20:59 | 12.82906 | -80.24401 | 37898 ft | 472 kts | 172° |
| 2026-05-05 20:59 | 12.76425 | -80.23306 | 37907 ft | 472 kts | 172° |
| 2026-05-05 21:00 | 12.69954 | -80.22214 | 37904 ft | 472 kts | 173° |
| 2026-05-05 21:00 | 12.63475 | -80.21121 | 37904 ft | 472 kts | 172° |
| 2026-05-05 21:01 | 12.57000 | -80.20030 | 37896 ft | 472 kts | 172° |
| 2026-05-05 21:01 | 12.50540 | -80.18940 | 37894 ft | 470 kts | 172° |
| 2026-05-05 21:02 | 12.44127 | -80.17860 | 37893 ft | 470 kts | 172° |
| 2026-05-05 21:02 | 12.37689 | -80.16776 | 37891 ft | 470 kts | 173° |
| 2026-05-05 21:03 | 12.31257 | -80.15693 | 37898 ft | 467 kts | 172° |
| 2026-05-05 21:03 | 12.24840 | -80.14615 | 37896 ft | 467 kts | 173° |
| 2026-05-05 21:04 | 12.18444 | -80.13539 | 37899 ft | 464 kts | 172° |
| 2026-05-05 21:04 | 12.12091 | -80.12471 | 37891 ft | 463 kts | 172° |
| 2026-05-05 21:05 | 12.05734 | -80.11403 | 37893 ft | 463 kts | 172° |
| 2026-05-05 21:05 | 11.99372 | -80.10335 | 37885 ft | 463 kts | 172° |
| 2026-05-05 21:06 | 11.93011 | -80.09268 | 37892 ft | 463 kts | 172° |
| 2026-05-05 21:06 | 11.86659 | -80.08203 | 37886 ft | 463 kts | 172° |
| 2026-05-05 21:07 | 11.80300 | -80.07136 | 37887 ft | 462 kts | 172° |
| 2026-05-05 21:07 | 11.73957 | -80.06074 | 37886 ft | 462 kts | 172° |
| 2026-05-05 21:08 | 11.67612 | -80.05011 | 37887 ft | 462 kts | 172° |
| 2026-05-05 21:08 | 11.61281 | -80.03952 | 37891 ft | 462 kts | 172° |
| 2026-05-05 21:09 | 11.54930 | -80.02889 | 37888 ft | 462 kts | 172° |
| 2026-05-05 21:09 | 11.48574 | -80.01826 | 37879 ft | 463 kts | 172° |
| 2026-05-05 21:10 | 11.42198 | -80.00760 | 37885 ft | 465 kts | 172° |
| 2026-05-05 21:10 | 11.35870 | -79.99703 | 37884 ft | 465 kts | 172° |
| 2026-05-05 21:11 | 11.29450 | -79.98630 | 37878 ft | 465 kts | 172° |
| 2026-05-05 21:11 | 11.23100 | -79.97570 | 37885 ft | 465 kts | 172° |
| 2026-05-05 21:12 | 11.16714 | -79.96504 | 37879 ft | 465 kts | 172° |
| 2026-05-05 21:12 | 11.10339 | -79.95441 | 37879 ft | 466 kts | 172° |
| 2026-05-05 21:13 | 11.03914 | -79.94369 | 37889 ft | 467 kts | 172° |
| 2026-05-05 21:13 | 10.97492 | -79.93299 | 37885 ft | 468 kts | 172° |
| 2026-05-05 21:14 | 10.91117 | -79.92237 | 37883 ft | 467 kts | 172° |
| 2026-05-05 21:14 | 10.84665 | -79.91163 | 37882 ft | 468 kts | 172° |
| 2026-05-05 21:15 | 10.78249 | -79.90095 | 37881 ft | 467 kts | 172° |
| 2026-05-05 21:15 | 10.71866 | -79.89034 | 37882 ft | 467 kts | 172° |
| 2026-05-05 21:16 | 10.65463 | -79.87969 | 37884 ft | 467 kts | 172° |
| 2026-05-05 21:16 | 10.59037 | -79.86901 | 37879 ft | 468 kts | 172° |
| 2026-05-05 21:17 | 10.52622 | -79.85835 | 37883 ft | 467 kts | 172° |
| 2026-05-05 21:17 | 10.49420 | -79.85302 | 37702 ft | 463 kts | 172° |
| 2026-05-05 21:17 | 10.46238 | -79.84774 | 36777 ft | 467 kts | 172° |
| 2026-05-05 21:18 | 10.43019 | -79.84112 | 35543 ft | 480 kts | 162° |
| 2026-05-05 21:18 | 10.39990 | -79.82687 | 34790 ft | 481 kts | 149° |
| 2026-05-05 21:18 | 10.37102 | -79.81015 | 34255 ft | 477 kts | 149° |
| 2026-05-05 21:18 | 10.34224 | -79.79321 | 33412 ft | 479 kts | 149° |
| 2026-05-05 21:19 | 10.31332 | -79.77591 | 32352 ft | 486 kts | 148° |
| 2026-05-05 21:19 | 10.28417 | -79.75829 | 31423 ft | 488 kts | 148° |
| 2026-05-05 21:19 | 10.25506 | -79.74063 | 30669 ft | 487 kts | 148° |
| 2026-05-05 21:19 | 10.22610 | -79.72303 | 29998 ft | 484 kts | 148° |
| 2026-05-05 21:20 | 10.19739 | -79.70558 | 29202 ft | 481 kts | 148° |
| 2026-05-05 21:20 | 10.16859 | -79.68810 | 28447 ft | 485 kts | 148° |
| 2026-05-05 21:20 | 10.13962 | -79.67052 | 27732 ft | 484 kts | 148° |
| 2026-05-05 21:20 | 10.11075 | -79.65299 | 27038 ft | 481 kts | 148° |
| 2026-05-05 21:21 | 10.08213 | -79.63563 | 26369 ft | 477 kts | 148° |
| 2026-05-05 21:21 | 10.05388 | -79.61848 | 25711 ft | 472 kts | 148° |
| 2026-05-05 21:21 | 10.02577 | -79.60142 | 25069 ft | 467 kts | 148° |
| 2026-05-05 21:21 | 9.99803 | -79.58460 | 24470 ft | 462 kts | 148° |
| 2026-05-05 21:22 | 9.97063 | -79.56798 | 23870 ft | 461 kts | 148° |
| 2026-05-05 21:22 | 9.94314 | -79.55131 | 23254 ft | 458 kts | 148° |
| 2026-05-05 21:22 | 9.91627 | -79.53502 | 22584 ft | 453 kts | 148° |
| 2026-05-05 21:22 | 9.88910 | -79.51856 | 21897 ft | 447 kts | 148° |
| 2026-05-05 21:23 | 9.86282 | -79.50291 | 21246 ft | 442 kts | 151° |
| 2026-05-05 21:23 | 9.83473 | -79.49040 | 20609 ft | 437 kts | 155° |
| 2026-05-05 21:23 | 9.80702 | -79.47816 | 19975 ft | 432 kts | 154° |
| 2026-05-05 21:23 | 9.77976 | -79.46588 | 19416 ft | 426 kts | 154° |
| 2026-05-05 21:24 | 9.75293 | -79.45367 | 19013 ft | 423 kts | 154° |
| 2026-05-05 21:24 | 9.72622 | -79.44148 | 18677 ft | 420 kts | 154° |
| 2026-05-05 21:24 | 9.69959 | -79.42931 | 18415 ft | 418 kts | 154° |
| 2026-05-05 21:24 | 9.67317 | -79.41723 | 18159 ft | 416 kts | 154° |
| 2026-05-05 21:25 | 9.64690 | -79.40522 | 17872 ft | 414 kts | 154° |
| 2026-05-05 21:25 | 9.62066 | -79.39323 | 17574 ft | 412 kts | 154° |
| 2026-05-05 21:25 | 9.59457 | -79.38130 | 17279 ft | 411 kts | 154° |
| 2026-05-05 21:25 | 9.56904 | -79.36858 | 16977 ft | 407 kts | 145° |
| 2026-05-05 21:26 | 9.54638 | -79.35159 | 16695 ft | 405 kts | 141° |
| 2026-05-05 21:26 | 9.52391 | -79.33473 | 16412 ft | 403 kts | 142° |
| 2026-05-05 21:26 | 9.50140 | -79.31791 | 16140 ft | 402 kts | 142° |
| 2026-05-05 21:26 | 9.47891 | -79.30113 | 15845 ft | 401 kts | 142° |
| 2026-05-05 21:27 | 9.45655 | -79.28446 | 15574 ft | 399 kts | 142° |
| 2026-05-05 21:27 | 9.43417 | -79.26777 | 15295 ft | 398 kts | 142° |
| 2026-05-05 21:27 | 9.41192 | -79.25118 | 15021 ft | 397 kts | 142° |
| 2026-05-05 21:27 | 9.38976 | -79.23467 | 14752 ft | 396 kts | 142° |
| 2026-05-05 21:28 | 9.36763 | -79.21817 | 14476 ft | 395 kts | 142° |
| 2026-05-05 21:28 | 9.34555 | -79.20172 | 14190 ft | 393 kts | 142° |
| 2026-05-05 21:28 | 9.32359 | -79.18536 | 13916 ft | 392 kts | 142° |
| 2026-05-05 21:28 | 9.30168 | -79.16903 | 13651 ft | 391 kts | 142° |
| 2026-05-05 21:29 | 9.27851 | -79.15468 | 13340 ft | 392 kts | 157° |
| 2026-05-05 21:29 | 9.25180 | -79.14980 | 13034 ft | 394 kts | 181° |
| 2026-05-05 21:29 | 9.22539 | -79.15656 | 12726 ft | 395 kts | 206° |
| 2026-05-05 21:29 | 9.20298 | -79.17249 | 12457 ft | 391 kts | 216° |
| 2026-05-05 21:30 | 9.18098 | -79.18815 | 12107 ft | 384 kts | 213° |
| 2026-05-05 21:30 | 9.15905 | -79.20323 | 11721 ft | 378 kts | 213° |
| 2026-05-05 21:30 | 9.13764 | -79.21783 | 11294 ft | 365 kts | 213° |
| 2026-05-05 21:30 | 9.11683 | -79.23184 | 10807 ft | 355 kts | 212° |
| 2026-05-05 21:31 | 9.09675 | -79.24527 | 10338 ft | 345 kts | 212° |
| 2026-05-05 21:31 | 9.07710 | -79.25842 | 9866 ft | 335 kts | 212° |
| 2026-05-05 21:31 | 9.06411 | -79.26711 | 9532 ft | 329 kts | 212° |
| 2026-05-05 21:31 | 9.03925 | -79.28374 | 8863 ft | 319 kts | 213° |
| 2026-05-05 21:32 | 9.02083 | -79.29573 | 8364 ft | 311 kts | 208° |
| 2026-05-05 21:32 | 9.00196 | -79.30599 | 7919 ft | 306 kts | 207° |
| 2026-05-05 21:32 | 8.98956 | -79.31276 | 7611 ft | 303 kts | 208° |
| 2026-05-05 21:32 | 8.97116 | -79.32285 | 7096 ft | 299 kts | 208° |
| 2026-05-05 21:33 | 8.94689 | -79.33625 | 6493 ft | 297 kts | 208° |
| 2026-05-05 21:33 | 8.93481 | -79.34295 | 6169 ft | 300 kts | 208° |
| 2026-05-05 21:33 | 8.91659 | -79.35306 | 5659 ft | 298 kts | 209° |
| 2026-05-05 21:33 | 8.89849 | -79.36312 | 5174 ft | 297 kts | 209° |
| 2026-05-05 21:34 | 8.88019 | -79.37329 | 4692 ft | 302 kts | 209° |
| 2026-05-05 21:34 | 8.86171 | -79.38355 | 4189 ft | 307 kts | 209° |
| 2026-05-05 21:34 | 8.84290 | -79.39400 | 3691 ft | 308 kts | 209° |
| 2026-05-05 21:34 | 8.82437 | -79.40426 | 3277 ft | 298 kts | 208° |
| 2026-05-05 21:35 | 8.80709 | -79.41443 | 3198 ft | 278 kts | 219° |
| 2026-05-05 21:35 | 8.79517 | -79.42930 | 3094 ft | 272 kts | 247° |
| 2026-05-05 21:35 | 8.79087 | -79.44761 | 3092 ft | 266 kts | 272° |
| 2026-05-05 21:35 | 8.79524 | -79.46548 | 3118 ft | 263 kts | 300° |
| 2026-05-05 21:36 | 8.80707 | -79.47915 | 3090 ft | 259 kts | 326° |
| 2026-05-05 21:36 | 8.82329 | -79.48618 | 3068 ft | 259 kts | 350° |
| 2026-05-05 21:36 | 8.84124 | -79.48617 | 3090 ft | 260 kts | 6° |
| 2026-05-05 21:36 | 8.85930 | -79.48462 | 3101 ft | 261 kts | 4° |
| 2026-05-05 21:37 | 8.87730 | -79.48322 | 3084 ft | 255 kts | 4° |
| 2026-05-05 21:37 | 8.89404 | -79.47975 | 3081 ft | 239 kts | 26° |
| 2026-05-05 21:37 | 8.90780 | -79.47085 | 2826 ft | 238 kts | 33° |
| 2026-05-05 21:37 | 8.92176 | -79.46208 | 2621 ft | 234 kts | 28° |
| 2026-05-05 21:38 | 8.93585 | -79.45432 | 2428 ft | 228 kts | 25° |
| 2026-05-05 21:38 | 8.95010 | -79.44743 | 2200 ft | 225 kts | 25° |
| 2026-05-05 21:38 | 8.96414 | -79.44072 | 2045 ft | 220 kts | 25° |
| 2026-05-05 21:38 | 8.97743 | -79.43358 | 1886 ft | 212 kts | 28° |
| 2026-05-05 21:39 | 8.98995 | -79.42608 | 1755 ft | 208 kts | 32° |
| 2026-05-05 21:39 | 9.00300 | -79.41779 | 1967 ft | 243 kts | 32° |
| 2026-05-05 21:39 | 9.01658 | -79.40859 | 2833 ft | 229 kts | 32° |
| 2026-05-05 21:39 | 9.02996 | -79.39998 | 3236 ft | 229 kts | 31° |
| 2026-05-05 21:40 | 9.04372 | -79.39177 | 3760 ft | 230 kts | 30° |
| 2026-05-05 21:40 | 9.05765 | -79.38346 | 4233 ft | 234 kts | 30° |
| 2026-05-05 21:40 | 9.07202 | -79.37537 | 4398 ft | 236 kts | 28° |
| 2026-05-05 21:40 | 9.08678 | -79.36785 | 4658 ft | 237 kts | 19° |
| 2026-05-05 21:41 | 9.10220 | -79.36221 | 4952 ft | 238 kts | 32° |
| 2026-05-05 21:41 | 9.11392 | -79.35058 | 4944 ft | 238 kts | 58° |
| 2026-05-05 21:41 | 9.11898 | -79.33486 | 5012 ft | 239 kts | 83° |
| 2026-05-05 21:41 | 9.11830 | -79.31825 | 5011 ft | 241 kts | 100° |
| 2026-05-05 21:42 | 9.11378 | -79.30191 | 5006 ft | 241 kts | 106° |
| 2026-05-05 21:42 | 9.10867 | -79.28575 | 4995 ft | 241 kts | 106° |
| 2026-05-05 21:42 | 9.10294 | -79.26967 | 4999 ft | 244 kts | 119° |
| 2026-05-05 21:42 | 9.09062 | -79.25839 | 4922 ft | 244 kts | 158° |
| 2026-05-05 21:43 | 9.07388 | -79.25605 | 4995 ft | 247 kts | 184° |
| 2026-05-05 21:43 | 9.05738 | -79.26091 | 4967 ft | 249 kts | 210° |
| 2026-05-05 21:43 | 9.04275 | -79.27045 | 5008 ft | 254 kts | 212° |
| 2026-05-05 21:43 | 9.02754 | -79.27997 | 4989 ft | 260 kts | 211° |
| 2026-05-05 21:44 | 9.01199 | -79.28953 | 4990 ft | 262 kts | 211° |
| 2026-05-05 21:44 | 8.99635 | -79.29912 | 4985 ft | 263 kts | 211° |
| 2026-05-05 21:44 | 8.98075 | -79.30867 | 4995 ft | 263 kts | 210° |
| 2026-05-05 21:44 | 8.96497 | -79.31829 | 4857 ft | 264 kts | 211° |
| 2026-05-05 21:45 | 8.94937 | -79.32785 | 4665 ft | 261 kts | 211° |
| 2026-05-05 21:45 | 8.93403 | -79.33726 | 4496 ft | 255 kts | 211° |
| 2026-05-05 21:45 | 8.91899 | -79.34648 | 4304 ft | 250 kts | 211° |
| 2026-05-05 21:45 | 8.90428 | -79.35549 | 4148 ft | 243 kts | 211° |
| 2026-05-05 21:46 | 8.89018 | -79.36412 | 4132 ft | 230 kts | 211° |
| 2026-05-05 21:46 | 8.87689 | -79.37225 | 4101 ft | 216 kts | 211° |
| 2026-05-05 21:46 | 8.86459 | -79.38036 | 3979 ft | 207 kts | 224° |
| 2026-05-05 21:46 | 8.85647 | -79.39172 | 3832 ft | 199 kts | 249° |
| 2026-05-05 21:47 | 8.85365 | -79.40503 | 3656 ft | 191 kts | 272° |
| 2026-05-05 21:47 | 8.85592 | -79.41796 | 3460 ft | 184 kts | 293° |
| 2026-05-05 21:47 | 8.86123 | -79.42967 | 3292 ft | 183 kts | 298° |
| 2026-05-05 21:47 | 8.86700 | -79.44098 | 3149 ft | 180 kts | 300° |
| 2026-05-05 21:48 | 8.87292 | -79.45190 | 3097 ft | 174 kts | 302° |
| 2026-05-05 21:48 | 8.87885 | -79.46233 | 3075 ft | 169 kts | 304° |
| 2026-05-05 21:48 | 8.88710 | -79.47030 | 2923 ft | 164 kts | 335° |
| 2026-05-05 21:48 | 8.89808 | -79.47254 | 2723 ft | 159 kts | 4° |
| 2026-05-05 21:49 | 8.90847 | -79.46942 | 2519 ft | 156 kts | 24° |
| 2026-05-05 21:49 | 8.91816 | -79.46456 | 2292 ft | 155 kts | 25° |
| 2026-05-05 21:49 | 8.92774 | -79.45958 | 2053 ft | 155 kts | 26° |
| 2026-05-05 21:49 | 8.93733 | -79.45455 | 1753 ft | 155 kts | 23° |
| 2026-05-05 21:50 | 8.94722 | -79.45032 | 1423 ft | 157 kts | 26° |
| 2026-05-05 21:50 | 8.95673 | -79.44502 | 1152 ft | 154 kts | 29° |
| 2026-05-05 21:50 | 8.96580 | -79.43908 | 1040 ft | 156 kts | 33° |
| 2026-05-05 21:50 | 8.97504 | -79.43265 | 1326 ft | 165 kts | 33° |
| 2026-05-05 21:51 | 8.98497 | -79.42664 | 1576 ft | 166 kts | 28° |
| 2026-05-05 21:51 | 8.99506 | -79.42163 | 1579 ft | 157 kts | 25° |
| 2026-05-05 21:51 | 9.00456 | -79.41680 | 1376 ft | 151 kts | 27° |
| 2026-05-05 21:51 | 9.01367 | -79.41181 | 1003 ft | 148 kts | 28° |
| 2026-05-05 21:52 | 9.03132 | -79.40188 | 554 ft | 143 kts | 29° |
| 2026-05-05 21:52 | 9.03996 | -79.39700 | 312 ft | 141 kts | 32° |
| 2026-05-05 21:52 | 9.04853 | -79.39215 | 91 ft | 141 kts | 32° |
| 2026-05-05 21:53 | 9.05621 | -79.38769 | 34 ft | 103 kts | 30° |
| 2026-05-05 21:53 | 9.06080 | -79.38511 | 34 ft | 54 kts | 29° |
| 2026-05-05 21:53 | 9.06350 | -79.38377 | 32 ft | 30 kts | 6° |
| 2026-05-05 21:53 | 9.06528 | -79.38377 | 32 ft | 16 kts | 359° |
| 2026-05-05 21:54 | 9.06548 | -79.38378 | 32 ft | 0 kts | 359° |
| 2026-05-05 21:55 | 9.06558 | -79.38378 | 32 ft | 3 kts | 359° |
| 2026-05-05 21:55 | 9.06589 | -79.38378 | 32 ft | 6 kts | 359° |
| 2026-05-05 21:56 | 9.06635 | -79.38392 | 32 ft | 8 kts | 327° |
| 2026-05-05 21:56 | 9.06665 | -79.38440 | 32 ft | 6 kts | 281° |
| 2026-05-05 21:56 | 9.06669 | -79.38478 | 32 ft | 6 kts | 284° |
| 2026-05-05 21:56 | 9.06691 | -79.38527 | 32 ft | 9 kts | 301° |
| 2026-05-05 21:57 | 9.06709 | -79.38557 | 32 ft | 0 kts | 300° |